Aérodrome :
LOGIN :

S'inscrire | Disclaimer

   EN    FR    IT 

 










Légende :    VFR   VFR Marginal   IFR   IFR Intensif   IFR Très Intensif
Visi : 
Plafond : 
>= 8 km
>= 3000ft
5 à 8 km
1000 à 3000 ft
1500m à 5 km
500 à 1000 ft
800 à 1500m
200 à 500 ft
< 800m
< 200 ft
Symboles :   Orages  Brouillard  Fortes neiges  Fortes précipitations  Vent > 20 kt
SIGMETs :   Divers  Orages  Givrage  Turbulence  Onde Orograph.  Cendres Volcan.







- Altitude de l'aérodrome : 20 ft
- Code IATA : BJA


DAAE - Soummam - Bejaia

DERNIER METAR :
  • 270200Z 22003KT 9000 FEW020 SCT090 16/14 Q1013

METARs EXPIRÉS :
  • 270100Z 18004KT 8000 FEW020TCU FEW023CB BKN040 16/15 Q1013 RETS
  • 270045Z 18006KT 8000 FEW020TCU FEW023CB BKN040 16/13 Q1013 RETS
  • 270010Z 02010KT 8000 TS FEW016 FEW020TCU FEW023CB BKN040 16/14 Q1013
  • 270000Z 36004KT 8000 FEW016 FEW020TCU FEW023CB BKN040 16/14 Q1013

TAF TAF DAAE
Valide du 27 à 00h jusqu'au 28 à 00h UTC


262300Z 2700/2724 26014KT 7000 -RA SCT016 FEW023CB BKN026
TEMPO 2700/2706 28014G24KT 4000 -SHRA SCT020CB
BECMG 2708/2710 29012KT 9999 FEW016 SCT020
BECMG 2718/2720 14008KT
Pas de NOTAMs connus pour ce terrain.



MET'MAP, la Météo Aéronautique d'un coup d'oeil ! - Copyright ORBIFLY Décembre 2007 - Disclaimer

ORBIFLY MET'MAP TEAM :

Programmation & Développement : Alexandra Zaïnal
Conception & Développement : Baudouin d'Aumeries
Co-Programmation & Développement : Marc-Olivier Méhu
Soutien technique & logistique : Manuel Goepfert

Contact : metmap@orbifly.com




SOURCES & CREDITS :

   NOAA